Map

Track Data

SID SEASON NUMBER BASIN SUBBASIN NAME ISO_TIME NATURE LAT LON WMO_WIND WMO_PRES WMO_AGENCY TRACK_TYPE DIST2LAND LANDFALL IFLAG USA_AGENCY USA_ATCF_ID USA_LAT USA_LON USA_RECORD USA_STATUS USA_WIND USA_PRES USA_SSHS USA_R34_NE USA_R34_SE USA_R34_SW USA_R34_NW USA_R50_NE USA_R50_SE USA_R50_SW USA_R50_NW USA_R64_NE USA_R64_SE USA_R64_SW USA_R64_NW USA_POCI USA_ROCI USA_RMW USA_EYE TOKYO_LAT TOKYO_LON TOKYO_GRADE TOKYO_WIND TOKYO_PRES TOKYO_R50_DIR TOKYO_R50_LONG TOKYO_R50_SHORT TOKYO_R30_DIR TOKYO_R30_LONG TOKYO_R30_SHORT TOKYO_LAND CMA_LAT CMA_LON CMA_CAT CMA_WIND CMA_PRES HKO_LAT HKO_LON HKO_CAT HKO_WIND HKO_PRES NEWDELHI_LAT NEWDELHI_LON NEWDELHI_GRADE NEWDELHI_WIND NEWDELHI_PRES NEWDELHI_CI NEWDELHI_DP NEWDELHI_POCI REUNION_LAT REUNION_LON REUNION_TYPE REUNION_WIND REUNION_PRES REUNION_TNUM REUNION_CI REUNION_RMW REUNION_R34_NE REUNION_R34_SE REUNION_R34_SW REUNION_R34_NW REUNION_R50_NE REUNION_R50_SE REUNION_R50_SW REUNION_R50_NW REUNION_R64_NE REUNION_R64_SE REUNION_R64_SW REUNION_R64_NW BOM_LAT BOM_LON BOM_TYPE BOM_WIND BOM_PRES BOM_TNUM BOM_CI BOM_RMW BOM_R34_NE BOM_R34_SE BOM_R34_SW BOM_R34_NW BOM_R50_NE BOM_R50_SE BOM_R50_SW BOM_R50_NW BOM_R64_NE BOM_R64_SE BOM_R64_SW BOM_R64_NW BOM_ROCI BOM_POCI BOM_EYE BOM_POS_METHOD BOM_PRES_METHOD NADI_LAT NADI_LON NADI_CAT NADI_WIND NADI_PRES WELLINGTON_LAT WELLINGTON_LON WELLINGTON_WIND WELLINGTON_PRES DS824_LAT DS824_LON DS824_STAGE DS824_WIND DS824_PRES TD9636_LAT TD9636_LON TD9636_STAGE TD9636_WIND TD9636_PRES TD9635_LAT TD9635_LON TD9635_WIND TD9635_PRES TD9635_ROCI NEUMANN_LAT NEUMANN_LON NEUMANN_CLASS NEUMANN_WIND NEUMANN_PRES MLC_LAT MLC_LON MLC_CLASS MLC_WIND MLC_PRES USA_GUST BOM_GUST BOM_GUST_PER REUNION_GUST REUNION_GUST_PER USA_SEAHGT USA_SEARAD_NE USA_SEARAD_SE USA_SEARAD_SW USA_SEARAD_NW STORM_SPEED STORM_DIR
1868289N26287 1868 16 NA NA NOT_NAMED 1868-10-15 00:00:00 TS 26.1000 -73.3000 70 hurdat_atl main 476 476 O_____________ hurdat_atl AL041868 26.1000 -73.3000 HU 70 1 8 13
1868289N26287 1868 16 NA NA NOT_NAMED 1868-10-15 03:00:00 TS 26.5000 -73.1902 main 502 502 P_____________ AL041868 26.5000 -73.1902 HU 70 1 8 13
1868289N26287 1868 16 NA NA NOT_NAMED 1868-10-15 06:00:00 TS 26.9000 -73.1000 70 hurdat_atl main 528 528 O_____________ hurdat_atl AL041868 26.9000 -73.1000 HU 70 1 8 9
1868289N26287 1868 16 NA NA NOT_NAMED 1868-10-15 09:00:00 TS 27.3000 -73.0424 main 555 555 P_____________ AL041868 27.3000 -73.0424 HU 70 1 8 6
1868289N26287 1868 16 NA NA NOT_NAMED 1868-10-15 12:00:00 TS 27.7000 -73.0000 70 hurdat_atl main 576 576 O_____________ hurdat_atl AL041868 27.7000 -73.0000 HU 70 1 8 5
1868289N26287 1868 16 NA NA NOT_NAMED 1868-10-15 15:00:00 TS 28.0850 -72.9647 main 599 599 P_____________ AL041868 28.0850 -72.9647 HU 70 1 8 6
1868289N26287 1868 16 NA NA NOT_NAMED 1868-10-15 18:00:00 TS 28.5000 -72.9000 70 hurdat_atl main 632 632 O_____________ hurdat_atl AL041868 28.5000 -72.9000 HU 70 1 9 11
1868289N26287 1868 16 NA NA NOT_NAMED 1868-10-15 21:00:00 TS 28.9925 -72.7651 main 673 673 P_____________ AL041868 28.9925 -72.7651 HU 75 1 10 15
1868289N26287 1868 16 NA NA NOT_NAMED 1868-10-16 00:00:00 TS 29.5000 -72.6000 80 hurdat_atl main 686 653 O_____________ hurdat_atl AL041868 29.5000 -72.6000 HU 80 1 10 16
1868289N26287 1868 16 NA NA NOT_NAMED 1868-10-16 03:00:00 TS 29.9500 -72.4498 main 659 619 P_____________ AL041868 29.9500 -72.4498 HU 80 1 9 16
1868289N26287 1868 16 NA NA NOT_NAMED 1868-10-16 06:00:00 TS 30.4000 -72.3000 80 hurdat_atl main 619 583 O_____________ hurdat_atl AL041868 30.4000 -72.3000 HU 80 1 10 14
1868289N26287 1868 16 NA NA NOT_NAMED 1868-10-16 09:00:00 TS 30.8848 -72.1793 main 583 557 P_____________ AL041868 30.8848 -72.1793 HU 80 1 10 14
1868289N26287 1868 16 NA NA NOT_NAMED 1868-10-16 12:00:00 TS 31.4000 -72.0000 80 hurdat_atl main 557 541 O_____________ hurdat_atl AL041868 31.4000 -72.0000 HU 80 1 12 22
1868289N26287 1868 16 NA NA NOT_NAMED 1868-10-16 15:00:00 TS 31.9501 -71.6802 main 534 529 P_____________ AL041868 31.9501 -71.6802 HU 80 1 13 28
1868289N26287 1868 16 NA NA NOT_NAMED 1868-10-16 18:00:00 TS 32.5000 -71.3000 80 hurdat_atl main 531 516 O_____________ hurdat_atl AL041868 32.5000 -71.3000 HU 80 1 12 30
1868289N26287 1868 16 NA NA NOT_NAMED 1868-10-16 21:00:00 TS 32.9923 -70.9567 main 516 511 P_____________ AL041868 32.9923 -70.9567 HU 85 2 12 30
1868289N26287 1868 16 NA NA NOT_NAMED 1868-10-17 00:00:00 TS 33.5000 -70.6000 90 hurdat_atl main 515 509 O_____________ hurdat_atl AL041868 33.5000 -70.6000 HU 90 2 13 30
1868289N26287 1868 16 NA NA NOT_NAMED 1868-10-17 03:00:00 TS 34.0774 -70.2072 main 517 517 P_____________ AL041868 34.0774 -70.2072 HU 90 2 14 29
1868289N26287 1868 16 NA NA NOT_NAMED 1868-10-17 06:00:00 TS 34.7000 -69.8000 90 hurdat_atl main 530 527 O_____________ hurdat_atl AL041868 34.7000 -69.8000 HU 90 2 14 28
1868289N26287 1868 16 NA NA NOT_NAMED 1868-10-17 09:00:00 TS 35.3272 -69.4138 main 553 551 P_____________ AL041868 35.3272 -69.4138 HU 90 2 15 27
1868289N26287 1868 16 NA NA NOT_NAMED 1868-10-17 12:00:00 TS 36.0000 -69.0000 90 hurdat_atl main 584 564 O_____________ hurdat_atl AL041868 36.0000 -69.0000 HU 90 2 16 27
1868289N26287 1868 16 NA NA NOT_NAMED 1868-10-17 15:00:00 TS 36.7331 -68.5225 main 566 497 P_____________ AL041868 36.7331 -68.5225 HU 90 2 17 28
1868289N26287 1868 16 NA NA NOT_NAMED 1868-10-17 18:00:00 TS 37.5000 -68.0000 90 hurdat_atl main 497 O_____________ hurdat_atl AL041868 37.5000 -68.0000 HU 90 2 17 28

About IBTrACS Database

This database is a web-friendly format of International Best Track Archive for Climate Stewardship (IBTrACS), a global best track data archive curated by NOAA dating back to 1842.

Updated: 2021-12-03